sensor_id;sensor_type;location;lat;lon;timestamp;temperature;humidity
56538;DHT22;42435;53.292;6.000;2023-07-31T00:00:14;18.70;80.30
56538;DHT22;42435;53.292;6.000;2023-07-31T00:02:39;18.70;80.30
56538;DHT22;42435;53.292;6.000;2023-07-31T00:05:05;18.80;80.30
56538;DHT22;42435;53.292;6.000;2023-07-31T00:07:32;18.70;80.20
56538;DHT22;42435;53.292;6.000;2023-07-31T00:09:57;18.70;80.20
56538;DHT22;42435;53.292;6.000;2023-07-31T00:12:23;18.80;80.30
56538;DHT22;42435;53.292;6.000;2023-07-31T00:14:49;18.80;80.30
56538;DHT22;42435;53.292;6.000;2023-07-31T00:17:16;18.70;80.40
56538;DHT22;42435;53.292;6.000;2023-07-31T00:19:42;18.80;80.40
56538;DHT22;42435;53.292;6.000;2023-07-31T00:22:07;18.70;80.40
56538;DHT22;42435;53.292;6.000;2023-07-31T00:24:33;18.70;80.40
56538;DHT22;42435;53.292;6.000;2023-07-31T00:26:59;18.70;80.50
56538;DHT22;42435;53.292;6.000;2023-07-31T00:29:24;18.70;80.50
56538;DHT22;42435;53.292;6.000;2023-07-31T00:31:50;18.70;80.60
56538;DHT22;42435;53.292;6.000;2023-07-31T00:34:15;18.70;80.60
56538;DHT22;42435;53.292;6.000;2023-07-31T00:36:41;18.70;80.60
56538;DHT22;42435;53.292;6.000;2023-07-31T00:39:06;18.70;80.60
56538;DHT22;42435;53.292;6.000;2023-07-31T00:41:32;18.70;80.70
56538;DHT22;42435;53.292;6.000;2023-07-31T00:43:57;18.70;80.70
56538;DHT22;42435;53.292;6.000;2023-07-31T00:46:23;18.70;80.70
56538;DHT22;42435;53.292;6.000;2023-07-31T00:48:49;18.60;80.70
56538;DHT22;42435;53.292;6.000;2023-07-31T00:51:15;18.60;80.80
56538;DHT22;42435;53.292;6.000;2023-07-31T00:53:41;18.60;80.90
56538;DHT22;42435;53.292;6.000;2023-07-31T00:56:08;18.60;81.00
56538;DHT22;42435;53.292;6.000;2023-07-31T00:58:34;18.60;81.00
56538;DHT22;42435;53.292;6.000;2023-07-31T01:01:00;18.60;81.10
56538;DHT22;42435;53.292;6.000;2023-07-31T01:03:25;18.60;81.20
56538;DHT22;42435;53.292;6.000;2023-07-31T01:08:52;18.60;81.30
56538;DHT22;42435;53.292;6.000;2023-07-31T01:11:31;18.60;81.30
56538;DHT22;42435;53.292;6.000;2023-07-31T01:13:58;18.60;81.30
56538;DHT22;42435;53.292;6.000;2023-07-31T01:16:27;18.50;81.20
56538;DHT22;42435;53.292;6.000;2023-07-31T01:18:53;18.50;81.30
56538;DHT22;42435;53.292;6.000;2023-07-31T01:24:41;18.50;81.60
56538;DHT22;42435;53.292;6.000;2023-07-31T01:27:14;18.50;81.60
56538;DHT22;42435;53.292;6.000;2023-07-31T01:29:49;18.50;81.50
56538;DHT22;42435;53.292;6.000;2023-07-31T01:32:18;18.50;81.70
56538;DHT22;42435;53.292;6.000;2023-07-31T01:34:45;18.50;81.60
56538;DHT22;42435;53.292;6.000;2023-07-31T01:37:11;18.50;81.60
56538;DHT22;42435;53.292;6.000;2023-07-31T01:39:37;18.40;81.70
56538;DHT22;42435;53.292;6.000;2023-07-31T01:42:03;18.40;81.90
56538;DHT22;42435;53.292;6.000;2023-07-31T01:44:28;18.40;81.90
56538;DHT22;42435;53.292;6.000;2023-07-31T01:46:54;18.40;81.90
56538;DHT22;42435;53.292;6.000;2023-07-31T01:49:19;18.40;82.00
56538;DHT22;42435;53.292;6.000;2023-07-31T01:51:45;18.40;82.00
56538;DHT22;42435;53.292;6.000;2023-07-31T01:54:10;18.30;82.00
56538;DHT22;42435;53.292;6.000;2023-07-31T01:56:36;18.30;82.10
56538;DHT22;42435;53.292;6.000;2023-07-31T01:59:02;18.30;82.10
56538;DHT22;42435;53.292;6.000;2023-07-31T02:01:27;18.20;82.20
56538;DHT22;42435;53.292;6.000;2023-07-31T02:03:53;18.20;82.20
56538;DHT22;42435;53.292;6.000;2023-07-31T02:06:19;18.20;82.20
56538;DHT22;42435;53.292;6.000;2023-07-31T02:08:45;18.20;82.30
56538;DHT22;42435;53.292;6.000;2023-07-31T02:11:10;18.20;82.30
56538;DHT22;42435;53.292;6.000;2023-07-31T02:13:36;18.20;82.30
56538;DHT22;42435;53.292;6.000;2023-07-31T02:16:01;18.10;82.30
56538;DHT22;42435;53.292;6.000;2023-07-31T02:18:27;18.20;82.30
56538;DHT22;42435;53.292;6.000;2023-07-31T02:20:53;18.10;82.20
56538;DHT22;42435;53.292;6.000;2023-07-31T02:23:19;18.10;82.30
56538;DHT22;42435;53.292;6.000;2023-07-31T02:25:45;18.00;82.20
56538;DHT22;42435;53.292;6.000;2023-07-31T02:28:11;18.00;82.30
56538;DHT22;42435;53.292;6.000;2023-07-31T02:30:37;18.00;82.30
56538;DHT22;42435;53.292;6.000;2023-07-31T02:33:02;18.00;82.30
56538;DHT22;42435;53.292;6.000;2023-07-31T02:35:28;18.00;82.40
56538;DHT22;42435;53.292;6.000;2023-07-31T02:37:54;18.00;82.50
56538;DHT22;42435;53.292;6.000;2023-07-31T02:40:19;18.00;82.50
56538;DHT22;42435;53.292;6.000;2023-07-31T02:42:45;18.00;82.50
56538;DHT22;42435;53.292;6.000;2023-07-31T02:45:10;18.00;82.50
56538;DHT22;42435;53.292;6.000;2023-07-31T02:47:36;17.90;82.50
56538;DHT22;42435;53.292;6.000;2023-07-31T02:50:03;17.90;82.50
56538;DHT22;42435;53.292;6.000;2023-07-31T02:52:28;17.90;82.60
56538;DHT22;42435;53.292;6.000;2023-07-31T02:54:54;18.00;82.50
56538;DHT22;42435;53.292;6.000;2023-07-31T02:57:19;18.00;82.50
56538;DHT22;42435;53.292;6.000;2023-07-31T02:59:45;17.90;82.50
56538;DHT22;42435;53.292;6.000;2023-07-31T03:02:11;17.90;82.40
56538;DHT22;42435;53.292;6.000;2023-07-31T03:04:37;17.90;82.40
56538;DHT22;42435;53.292;6.000;2023-07-31T03:07:03;17.90;82.50
56538;DHT22;42435;53.292;6.000;2023-07-31T03:09:28;17.90;82.60
56538;DHT22;42435;53.292;6.000;2023-07-31T03:11:54;17.90;82.70
56538;DHT22;42435;53.292;6.000;2023-07-31T03:14:20;17.90;82.80
56538;DHT22;42435;53.292;6.000;2023-07-31T03:16:45;17.90;82.80
56538;DHT22;42435;53.292;6.000;2023-07-31T03:19:11;17.90;82.90
56538;DHT22;42435;53.292;6.000;2023-07-31T03:21:36;17.90;82.90
56538;DHT22;42435;53.292;6.000;2023-07-31T03:24:02;17.90;83.00
56538;DHT22;42435;53.292;6.000;2023-07-31T03:26:27;17.90;83.00
56538;DHT22;42435;53.292;6.000;2023-07-31T03:28:55;17.90;83.10
56538;DHT22;42435;53.292;6.000;2023-07-31T03:31:20;17.90;83.10
56538;DHT22;42435;53.292;6.000;2023-07-31T03:33:46;17.90;83.10
56538;DHT22;42435;53.292;6.000;2023-07-31T03:36:11;17.90;83.20
56538;DHT22;42435;53.292;6.000;2023-07-31T03:38:37;17.90;83.20
56538;DHT22;42435;53.292;6.000;2023-07-31T03:41:02;17.90;83.10
56538;DHT22;42435;53.292;6.000;2023-07-31T03:43:28;17.90;83.10
56538;DHT22;42435;53.292;6.000;2023-07-31T03:45:54;17.90;83.00
56538;DHT22;42435;53.292;6.000;2023-07-31T03:48:20;17.90;83.00
56538;DHT22;42435;53.292;6.000;2023-07-31T03:50:45;17.90;83.00
56538;DHT22;42435;53.292;6.000;2023-07-31T03:53:11;17.90;82.90
56538;DHT22;42435;53.292;6.000;2023-07-31T03:55:37;17.80;83.00
56538;DHT22;42435;53.292;6.000;2023-07-31T03:58:02;17.80;83.00
56538;DHT22;42435;53.292;6.000;2023-07-31T04:00:28;17.80;83.10
56538;DHT22;42435;53.292;6.000;2023-07-31T04:02:54;17.70;83.10
56538;DHT22;42435;53.292;6.000;2023-07-31T04:05:19;17.70;83.10
56538;DHT22;42435;53.292;6.000;2023-07-31T04:07:45;17.70;83.10
56538;DHT22;42435;53.292;6.000;2023-07-31T04:10:10;17.70;83.20
56538;DHT22;42435;53.292;6.000;2023-07-31T04:12:36;17.70;83.20
56538;DHT22;42435;53.292;6.000;2023-07-31T04:15:01;17.70;83.30
56538;DHT22;42435;53.292;6.000;2023-07-31T04:17:27;17.70;83.20
56538;DHT22;42435;53.292;6.000;2023-07-31T04:19:52;17.70;83.20
56538;DHT22;42435;53.292;6.000;2023-07-31T04:22:18;17.60;83.20
56538;DHT22;42435;53.292;6.000;2023-07-31T04:24:44;17.70;83.30
56538;DHT22;42435;53.292;6.000;2023-07-31T04:27:09;17.70;83.30
56538;DHT22;42435;53.292;6.000;2023-07-31T04:29:35;17.70;83.40
56538;DHT22;42435;53.292;6.000;2023-07-31T04:32:00;17.70;83.30
56538;DHT22;42435;53.292;6.000;2023-07-31T04:34:26;17.70;83.40
56538;DHT22;42435;53.292;6.000;2023-07-31T04:36:51;17.70;83.50
56538;DHT22;42435;53.292;6.000;2023-07-31T04:39:17;17.70;83.50
56538;DHT22;42435;53.292;6.000;2023-07-31T04:41:42;17.70;83.50
56538;DHT22;42435;53.292;6.000;2023-07-31T04:44:08;17.70;83.50
56538;DHT22;42435;53.292;6.000;2023-07-31T04:46:34;17.80;83.50
56538;DHT22;42435;53.292;6.000;2023-07-31T04:49:00;17.80;83.60
56538;DHT22;42435;53.292;6.000;2023-07-31T04:51:26;17.80;83.60
56538;DHT22;42435;53.292;6.000;2023-07-31T04:53:51;17.80;83.50
56538;DHT22;42435;53.292;6.000;2023-07-31T04:56:17;17.80;83.50
56538;DHT22;42435;53.292;6.000;2023-07-31T04:58:42;17.80;83.50
56538;DHT22;42435;53.292;6.000;2023-07-31T05:01:08;17.90;83.60
56538;DHT22;42435;53.292;6.000;2023-07-31T05:03:33;17.80;83.60
56538;DHT22;42435;53.292;6.000;2023-07-31T05:05:59;17.90;83.70
56538;DHT22;42435;53.292;6.000;2023-07-31T05:08:25;17.90;83.80
56538;DHT22;42435;53.292;6.000;2023-07-31T05:10:50;17.90;83.90
56538;DHT22;42435;53.292;6.000;2023-07-31T05:13:16;17.90;84.10
56538;DHT22;42435;53.292;6.000;2023-07-31T05:15:41;17.90;84.20
56538;DHT22;42435;53.292;6.000;2023-07-31T05:18:07;17.90;84.30
56538;DHT22;42435;53.292;6.000;2023-07-31T05:20:32;17.90;84.30
56538;DHT22;42435;53.292;6.000;2023-07-31T05:22:58;17.90;84.50
56538;DHT22;42435;53.292;6.000;2023-07-31T05:25:24;18.00;84.60
56538;DHT22;42435;53.292;6.000;2023-07-31T05:27:49;18.00;84.60
56538;DHT22;42435;53.292;6.000;2023-07-31T05:30:15;18.00;84.70
56538;DHT22;42435;53.292;6.000;2023-07-31T05:32:40;18.00;84.70
56538;DHT22;42435;53.292;6.000;2023-07-31T05:35:06;18.10;84.60
56538;DHT22;42435;53.292;6.000;2023-07-31T05:37:32;18.10;84.60
56538;DHT22;42435;53.292;6.000;2023-07-31T05:39:58;18.10;84.60
56538;DHT22;42435;53.292;6.000;2023-07-31T05:42:23;18.20;84.60
56538;DHT22;42435;53.292;6.000;2023-07-31T05:44:49;18.10;84.50
56538;DHT22;42435;53.292;6.000;2023-07-31T05:47:14;18.20;84.50
56538;DHT22;42435;53.292;6.000;2023-07-31T05:49:40;18.10;84.50
56538;DHT22;42435;53.292;6.000;2023-07-31T05:52:06;18.20;84.60
56538;DHT22;42435;53.292;6.000;2023-07-31T05:54:32;18.20;84.70
56538;DHT22;42435;53.292;6.000;2023-07-31T05:56:58;18.20;84.70
56538;DHT22;42435;53.292;6.000;2023-07-31T05:59:23;18.20;84.70
56538;DHT22;42435;53.292;6.000;2023-07-31T06:01:49;18.20;84.80
56538;DHT22;42435;53.292;6.000;2023-07-31T06:04:14;18.30;84.70
56538;DHT22;42435;53.292;6.000;2023-07-31T06:06:40;18.30;84.70
56538;DHT22;42435;53.292;6.000;2023-07-31T06:09:06;18.30;84.80
56538;DHT22;42435;53.292;6.000;2023-07-31T06:11:32;18.40;84.70
56538;DHT22;42435;53.292;6.000;2023-07-31T06:13:58;18.40;84.70
56538;DHT22;42435;53.292;6.000;2023-07-31T06:16:23;18.50;84.70
56538;DHT22;42435;53.292;6.000;2023-07-31T06:18:49;18.50;84.70
56538;DHT22;42435;53.292;6.000;2023-07-31T06:21:14;18.50;84.50
56538;DHT22;42435;53.292;6.000;2023-07-31T06:23:40;18.50;84.40
56538;DHT22;42435;53.292;6.000;2023-07-31T06:26:05;18.50;84.40
56538;DHT22;42435;53.292;6.000;2023-07-31T06:28:32;18.50;84.20
56538;DHT22;42435;53.292;6.000;2023-07-31T06:30:58;18.50;84.10
56538;DHT22;42435;53.292;6.000;2023-07-31T06:33:24;18.50;84.10
56538;DHT22;42435;53.292;6.000;2023-07-31T06:35:50;18.50;84.10
56538;DHT22;42435;53.292;6.000;2023-07-31T06:38:15;18.60;84.10
56538;DHT22;42435;53.292;6.000;2023-07-31T06:40:41;18.60;84.00
56538;DHT22;42435;53.292;6.000;2023-07-31T06:43:06;18.50;84.00
56538;DHT22;42435;53.292;6.000;2023-07-31T06:45:35;18.60;84.10
56538;DHT22;42435;53.292;6.000;2023-07-31T06:48:01;18.60;84.10
56538;DHT22;42435;53.292;6.000;2023-07-31T06:50:28;18.60;83.90
56538;DHT22;42435;53.292;6.000;2023-07-31T06:52:54;18.60;84.00
56538;DHT22;42435;53.292;6.000;2023-07-31T06:55:20;18.60;84.10
56538;DHT22;42435;53.292;6.000;2023-07-31T06:57:47;18.60;84.20
56538;DHT22;42435;53.292;6.000;2023-07-31T07:00:15;18.60;84.10
56538;DHT22;42435;53.292;6.000;2023-07-31T07:02:41;18.60;84.10
56538;DHT22;42435;53.292;6.000;2023-07-31T07:05:07;18.70;84.20
56538;DHT22;42435;53.292;6.000;2023-07-31T07:07:33;18.70;84.30
56538;DHT22;42435;53.292;6.000;2023-07-31T07:09:59;18.70;84.30
56538;DHT22;42435;53.292;6.000;2023-07-31T07:12:31;18.70;84.30
56538;DHT22;42435;53.292;6.000;2023-07-31T07:14:57;18.80;84.30
56538;DHT22;42435;53.292;6.000;2023-07-31T07:17:23;18.80;84.30
56538;DHT22;42435;53.292;6.000;2023-07-31T07:19:49;18.80;84.30
56538;DHT22;42435;53.292;6.000;2023-07-31T07:22:15;18.80;84.40
56538;DHT22;42435;53.292;6.000;2023-07-31T07:24:41;18.80;84.40
56538;DHT22;42435;53.292;6.000;2023-07-31T07:27:06;18.80;84.40
56538;DHT22;42435;53.292;6.000;2023-07-31T07:29:34;18.80;84.60
56538;DHT22;42435;53.292;6.000;2023-07-31T07:32:00;18.90;84.80
56538;DHT22;42435;53.292;6.000;2023-07-31T07:34:27;18.90;84.80
56538;DHT22;42435;53.292;6.000;2023-07-31T07:36:53;18.90;84.80
56538;DHT22;42435;53.292;6.000;2023-07-31T07:39:19;19.00;84.60
56538;DHT22;42435;53.292;6.000;2023-07-31T07:41:46;19.10;84.60
56538;DHT22;42435;53.292;6.000;2023-07-31T07:44:14;19.10;84.60
56538;DHT22;42435;53.292;6.000;2023-07-31T07:46:40;19.20;84.70
56538;DHT22;42435;53.292;6.000;2023-07-31T07:49:06;19.20;84.70
56538;DHT22;42435;53.292;6.000;2023-07-31T07:51:32;19.30;84.50
56538;DHT22;42435;53.292;6.000;2023-07-31T07:53:58;19.40;84.60
56538;DHT22;42435;53.292;6.000;2023-07-31T07:56:25;19.40;84.40
56538;DHT22;42435;53.292;6.000;2023-07-31T07:58:51;19.50;84.30
56538;DHT22;42435;53.292;6.000;2023-07-31T08:01:17;19.60;84.10
56538;DHT22;42435;53.292;6.000;2023-07-31T08:03:42;19.60;84.00
56538;DHT22;42435;53.292;6.000;2023-07-31T08:06:09;19.70;84.00
56538;DHT22;42435;53.292;6.000;2023-07-31T08:08:35;19.70;84.00
56538;DHT22;42435;53.292;6.000;2023-07-31T08:11:01;19.70;83.90
56538;DHT22;42435;53.292;6.000;2023-07-31T08:13:27;19.80;83.80
56538;DHT22;42435;53.292;6.000;2023-07-31T08:15:52;19.80;83.80
56538;DHT22;42435;53.292;6.000;2023-07-31T08:18:18;19.70;83.60
56538;DHT22;42435;53.292;6.000;2023-07-31T08:20:44;19.80;83.60
56538;DHT22;42435;53.292;6.000;2023-07-31T08:23:10;19.80;83.60
56538;DHT22;42435;53.292;6.000;2023-07-31T08:25:36;19.80;83.60
56538;DHT22;42435;53.292;6.000;2023-07-31T08:28:02;19.80;83.80
56538;DHT22;42435;53.292;6.000;2023-07-31T08:30:28;19.80;83.80
56538;DHT22;42435;53.292;6.000;2023-07-31T08:32:54;19.90;84.10
56538;DHT22;42435;53.292;6.000;2023-07-31T08:35:19;20.00;84.30
56538;DHT22;42435;53.292;6.000;2023-07-31T08:37:45;20.00;84.30
56538;DHT22;42435;53.292;6.000;2023-07-31T08:40:11;20.20;84.10
56538;DHT22;42435;53.292;6.000;2023-07-31T08:42:46;20.20;84.00
56538;DHT22;42435;53.292;6.000;2023-07-31T08:45:17;20.30;83.60
56538;DHT22;42435;53.292;6.000;2023-07-31T08:47:46;20.30;83.50
56538;DHT22;42435;53.292;6.000;2023-07-31T08:50:16;20.40;83.20
56538;DHT22;42435;53.292;6.000;2023-07-31T08:52:43;20.40;83.10
56538;DHT22;42435;53.292;6.000;2023-07-31T08:55:09;20.40;83.00
56538;DHT22;42435;53.292;6.000;2023-07-31T08:57:37;20.40;82.70
56538;DHT22;42435;53.292;6.000;2023-07-31T09:00:05;20.30;82.40
56538;DHT22;42435;53.292;6.000;2023-07-31T09:05:17;20.20;82.70
56538;DHT22;42435;53.292;6.000;2023-07-31T09:07:44;20.20;82.60
56538;DHT22;42435;53.292;6.000;2023-07-31T09:10:14;20.10;82.60
56538;DHT22;42435;53.292;6.000;2023-07-31T09:12:40;20.00;82.70
56538;DHT22;42435;53.292;6.000;2023-07-31T09:15:06;20.00;82.80
56538;DHT22;42435;53.292;6.000;2023-07-31T09:17:36;20.00;83.10
56538;DHT22;42435;53.292;6.000;2023-07-31T09:20:19;20.00;83.30
56538;DHT22;42435;53.292;6.000;2023-07-31T09:22:47;20.10;83.20
56538;DHT22;42435;53.292;6.000;2023-07-31T09:25:24;20.10;83.00
56538;DHT22;42435;53.292;6.000;2023-07-31T09:28:01;20.10;82.90
56538;DHT22;42435;53.292;6.000;2023-07-31T09:30:27;20.10;83.00
56538;DHT22;42435;53.292;6.000;2023-07-31T09:33:01;20.20;83.10
56538;DHT22;42435;53.292;6.000;2023-07-31T09:35:30;20.40;83.40
56538;DHT22;42435;53.292;6.000;2023-07-31T09:37:59;20.40;83.20
56538;DHT22;42435;53.292;6.000;2023-07-31T09:40:36;20.50;83.00
56538;DHT22;42435;53.292;6.000;2023-07-31T09:43:04;20.50;82.80
56538;DHT22;42435;53.292;6.000;2023-07-31T09:45:34;20.60;82.60
56538;DHT22;42435;53.292;6.000;2023-07-31T09:47:59;20.50;82.70
56538;DHT22;42435;53.292;6.000;2023-07-31T09:50:25;20.60;82.60
56538;DHT22;42435;53.292;6.000;2023-07-31T09:52:51;20.60;82.50
56538;DHT22;42435;53.292;6.000;2023-07-31T09:55:18;20.60;82.30
56538;DHT22;42435;53.292;6.000;2023-07-31T09:57:46;20.60;82.40
56538;DHT22;42435;53.292;6.000;2023-07-31T10:00:13;20.70;82.40
56538;DHT22;42435;53.292;6.000;2023-07-31T10:02:39;20.60;82.20
56538;DHT22;42435;53.292;6.000;2023-07-31T10:05:06;20.70;82.50
56538;DHT22;42435;53.292;6.000;2023-07-31T10:07:37;20.80;82.60
56538;DHT22;42435;53.292;6.000;2023-07-31T10:10:04;20.80;82.30
56538;DHT22;42435;53.292;6.000;2023-07-31T10:12:32;20.80;82.20
56538;DHT22;42435;53.292;6.000;2023-07-31T10:15:00;20.80;81.90
56538;DHT22;42435;53.292;6.000;2023-07-31T10:17:26;20.70;81.70
56538;DHT22;42435;53.292;6.000;2023-07-31T10:19:53;20.70;81.80
56538;DHT22;42435;53.292;6.000;2023-07-31T10:22:19;20.70;82.10
56538;DHT22;42435;53.292;6.000;2023-07-31T10:24:45;20.70;82.30
56538;DHT22;42435;53.292;6.000;2023-07-31T10:27:14;20.80;82.30
56538;DHT22;42435;53.292;6.000;2023-07-31T10:29:41;20.80;82.00
56538;DHT22;42435;53.292;6.000;2023-07-31T10:32:09;20.80;81.80
56538;DHT22;42435;53.292;6.000;2023-07-31T10:34:36;20.80;81.90
56538;DHT22;42435;53.292;6.000;2023-07-31T10:37:24;20.90;82.00
56538;DHT22;42435;53.292;6.000;2023-07-31T10:42:57;21.00;81.70
56538;DHT22;42435;53.292;6.000;2023-07-31T10:45:31;21.10;81.70
56538;DHT22;42435;53.292;6.000;2023-07-31T10:48:01;21.20;81.50
56538;DHT22;42435;53.292;6.000;2023-07-31T10:50:29;21.20;81.20
56538;DHT22;42435;53.292;6.000;2023-07-31T10:52:56;21.20;81.20
56538;DHT22;42435;53.292;6.000;2023-07-31T10:55:42;21.20;81.10
56538;DHT22;42435;53.292;6.000;2023-07-31T10:58:13;21.20;81.50
56538;DHT22;42435;53.292;6.000;2023-07-31T11:00:43;21.30;81.40
56538;DHT22;42435;53.292;6.000;2023-07-31T11:03:12;21.30;81.00
56538;DHT22;42435;53.292;6.000;2023-07-31T11:08:27;21.40;80.60
56538;DHT22;42435;53.292;6.000;2023-07-31T11:15:54;21.30;80.40
56538;DHT22;42435;53.292;6.000;2023-07-31T11:18:19;21.30;80.10
56538;DHT22;42435;53.292;6.000;2023-07-31T11:20:45;21.20;80.00
56538;DHT22;42435;53.292;6.000;2023-07-31T11:23:11;21.10;80.30
56538;DHT22;42435;53.292;6.000;2023-07-31T11:25:40;21.00;80.50
56538;DHT22;42435;53.292;6.000;2023-07-31T11:28:15;21.00;81.10
56538;DHT22;42435;53.292;6.000;2023-07-31T11:30:42;21.00;81.50
56538;DHT22;42435;53.292;6.000;2023-07-31T11:33:09;21.10;81.80
56538;DHT22;42435;53.292;6.000;2023-07-31T11:35:40;21.20;82.00
56538;DHT22;42435;53.292;6.000;2023-07-31T11:38:07;21.20;81.50
56538;DHT22;42435;53.292;6.000;2023-07-31T11:40:41;21.30;81.10
56538;DHT22;42435;53.292;6.000;2023-07-31T11:43:07;21.20;80.80
56538;DHT22;42435;53.292;6.000;2023-07-31T11:45:33;21.20;80.70
56538;DHT22;42435;53.292;6.000;2023-07-31T11:48:01;21.10;80.70
56538;DHT22;42435;53.292;6.000;2023-07-31T11:50:26;21.20;81.00
56538;DHT22;42435;53.292;6.000;2023-07-31T11:53:00;21.10;81.10
56538;DHT22;42435;53.292;6.000;2023-07-31T11:55:29;21.20;81.30
56538;DHT22;42435;53.292;6.000;2023-07-31T11:57:57;21.10;81.20
56538;DHT22;42435;53.292;6.000;2023-07-31T12:00:23;21.10;81.40
56538;DHT22;42435;53.292;6.000;2023-07-31T12:02:50;21.10;81.40
56538;DHT22;42435;53.292;6.000;2023-07-31T12:05:16;21.00;81.20
56538;DHT22;42435;53.292;6.000;2023-07-31T12:07:50;20.90;81.20
56538;DHT22;42435;53.292;6.000;2023-07-31T12:10:34;20.90;81.30
56538;DHT22;42435;53.292;6.000;2023-07-31T12:13:09;20.80;81.70
56538;DHT22;42435;53.292;6.000;2023-07-31T12:15:43;20.80;82.00
56538;DHT22;42435;53.292;6.000;2023-07-31T12:18:10;20.90;82.20
56538;DHT22;42435;53.292;6.000;2023-07-31T12:20:42;20.80;82.20
56538;DHT22;42435;53.292;6.000;2023-07-31T12:23:19;20.90;82.40
56538;DHT22;42435;53.292;6.000;2023-07-31T12:26:04;20.90;82.30
56538;DHT22;42435;53.292;6.000;2023-07-31T12:28:30;20.90;81.90
56538;DHT22;42435;53.292;6.000;2023-07-31T12:31:00;21.00;81.90
56538;DHT22;42435;53.292;6.000;2023-07-31T12:33:31;21.00;81.90
56538;DHT22;42435;53.292;6.000;2023-07-31T12:36:01;21.10;81.80
56538;DHT22;42435;53.292;6.000;2023-07-31T12:38:27;21.10;81.60
56538;DHT22;42435;53.292;6.000;2023-07-31T12:40:53;21.10;81.40
56538;DHT22;42435;53.292;6.000;2023-07-31T12:43:18;21.10;81.20
56538;DHT22;42435;53.292;6.000;2023-07-31T12:45:44;21.20;80.90
56538;DHT22;42435;53.292;6.000;2023-07-31T12:48:09;21.20;80.60
56538;DHT22;42435;53.292;6.000;2023-07-31T12:50:35;21.20;80.60
56538;DHT22;42435;53.292;6.000;2023-07-31T12:53:02;21.20;80.60
56538;DHT22;42435;53.292;6.000;2023-07-31T12:55:29;21.20;80.50
56538;DHT22;42435;53.292;6.000;2023-07-31T12:57:55;21.20;80.50
56538;DHT22;42435;53.292;6.000;2023-07-31T13:00:21;21.10;80.60
56538;DHT22;42435;53.292;6.000;2023-07-31T13:02:47;21.20;80.70
56538;DHT22;42435;53.292;6.000;2023-07-31T13:05:13;21.20;80.70
56538;DHT22;42435;53.292;6.000;2023-07-31T13:07:39;21.20;80.70
56538;DHT22;42435;53.292;6.000;2023-07-31T13:10:05;21.20;80.70
56538;DHT22;42435;53.292;6.000;2023-07-31T13:12:31;21.20;80.50
56538;DHT22;42435;53.292;6.000;2023-07-31T13:14:57;21.20;80.50
56538;DHT22;42435;53.292;6.000;2023-07-31T13:17:23;21.20;80.30
56538;DHT22;42435;53.292;6.000;2023-07-31T13:19:48;21.10;80.10
56538;DHT22;42435;53.292;6.000;2023-07-31T13:22:14;21.10;79.90
56538;DHT22;42435;53.292;6.000;2023-07-31T13:24:39;21.00;79.80
56538;DHT22;42435;53.292;6.000;2023-07-31T13:27:05;21.10;80.00
56538;DHT22;42435;53.292;6.000;2023-07-31T13:29:30;21.10;80.20
56538;DHT22;42435;53.292;6.000;2023-07-31T13:31:57;21.20;80.40
56538;DHT22;42435;53.292;6.000;2023-07-31T13:34:23;21.30;80.40
56538;DHT22;42435;53.292;6.000;2023-07-31T13:36:48;21.40;80.00
56538;DHT22;42435;53.292;6.000;2023-07-31T13:39:14;21.40;79.70
56538;DHT22;42435;53.292;6.000;2023-07-31T13:41:39;21.50;79.50
56538;DHT22;42435;53.292;6.000;2023-07-31T13:44:05;21.50;79.50
56538;DHT22;42435;53.292;6.000;2023-07-31T13:46:30;21.60;79.40
56538;DHT22;42435;53.292;6.000;2023-07-31T13:48:58;21.70;79.10
56538;DHT22;42435;53.292;6.000;2023-07-31T13:51:25;21.80;78.50
56538;DHT22;42435;53.292;6.000;2023-07-31T13:53:50;21.90;77.90
56538;DHT22;42435;53.292;6.000;2023-07-31T13:56:16;21.90;77.60
56538;DHT22;42435;53.292;6.000;2023-07-31T13:58:42;21.90;77.50
56538;DHT22;42435;53.292;6.000;2023-07-31T14:01:07;21.90;77.30
56538;DHT22;42435;53.292;6.000;2023-07-31T14:03:33;21.90;77.20
56538;DHT22;42435;53.292;6.000;2023-07-31T14:05:58;21.90;77.00
56538;DHT22;42435;53.292;6.000;2023-07-31T14:08:24;22.00;77.00
56538;DHT22;42435;53.292;6.000;2023-07-31T14:10:52;22.00;77.30
56538;DHT22;42435;53.292;6.000;2023-07-31T14:13:18;22.00;77.20
56538;DHT22;42435;53.292;6.000;2023-07-31T14:15:43;22.10;77.00
56538;DHT22;42435;53.292;6.000;2023-07-31T14:18:09;22.10;76.90
56538;DHT22;42435;53.292;6.000;2023-07-31T14:20:35;22.20;76.60
56538;DHT22;42435;53.292;6.000;2023-07-31T14:23:02;22.20;76.40
56538;DHT22;42435;53.292;6.000;2023-07-31T14:25:27;22.10;76.10
56538;DHT22;42435;53.292;6.000;2023-07-31T14:27:53;22.00;76.10
56538;DHT22;42435;53.292;6.000;2023-07-31T14:30:18;22.00;76.20
56538;DHT22;42435;53.292;6.000;2023-07-31T14:32:44;21.90;76.30
56538;DHT22;42435;53.292;6.000;2023-07-31T14:35:10;21.90;76.50
56538;DHT22;42435;53.292;6.000;2023-07-31T14:37:39;21.90;76.50
56538;DHT22;42435;53.292;6.000;2023-07-31T14:40:06;21.90;76.60
56538;DHT22;42435;53.292;6.000;2023-07-31T14:42:32;21.80;76.60
56538;DHT22;42435;53.292;6.000;2023-07-31T14:44:57;21.80;76.60
56538;DHT22;42435;53.292;6.000;2023-07-31T14:47:23;21.70;76.70
56538;DHT22;42435;53.292;6.000;2023-07-31T14:49:49;21.60;76.70
56538;DHT22;42435;53.292;6.000;2023-07-31T14:52:17;21.60;76.90
56538;DHT22;42435;53.292;6.000;2023-07-31T14:54:43;21.60;76.90
56538;DHT22;42435;53.292;6.000;2023-07-31T14:57:09;21.60;77.10
56538;DHT22;42435;53.292;6.000;2023-07-31T14:59:34;21.50;77.00
56538;DHT22;42435;53.292;6.000;2023-07-31T15:02:00;21.40;77.10
56538;DHT22;42435;53.292;6.000;2023-07-31T15:04:25;21.40;77.20
56538;DHT22;42435;53.292;6.000;2023-07-31T15:06:52;21.40;77.40
56538;DHT22;42435;53.292;6.000;2023-07-31T15:09:18;21.40;77.40
56538;DHT22;42435;53.292;6.000;2023-07-31T15:11:43;21.30;77.50
56538;DHT22;42435;53.292;6.000;2023-07-31T15:14:09;21.30;77.60
56538;DHT22;42435;53.292;6.000;2023-07-31T15:16:35;21.30;77.70
56538;DHT22;42435;53.292;6.000;2023-07-31T15:19:00;21.30;77.70
56538;DHT22;42435;53.292;6.000;2023-07-31T15:21:26;21.30;77.80
56538;DHT22;42435;53.292;6.000;2023-07-31T15:23:52;21.30;77.70
56538;DHT22;42435;53.292;6.000;2023-07-31T15:26:17;21.30;77.70
56538;DHT22;42435;53.292;6.000;2023-07-31T15:28:48;21.30;77.70
56538;DHT22;42435;53.292;6.000;2023-07-31T15:31:14;21.30;77.70
56538;DHT22;42435;53.292;6.000;2023-07-31T15:33:40;21.20;77.80
56538;DHT22;42435;53.292;6.000;2023-07-31T15:36:05;21.20;77.80
56538;DHT22;42435;53.292;6.000;2023-07-31T15:38:32;21.20;77.90
56538;DHT22;42435;53.292;6.000;2023-07-31T15:40:57;21.20;78.10
56538;DHT22;42435;53.292;6.000;2023-07-31T15:43:23;21.20;78.00
56538;DHT22;42435;53.292;6.000;2023-07-31T15:45:49;21.20;77.90